sensor_id;sensor_type;location;lat;lon;timestamp;temperature;humidity
10492;DHT22;5293;51.464;-2.566;2023-05-07T00:00:08;13.40;99.90
10492;DHT22;5293;51.464;-2.566;2023-05-07T00:02:35;13.40;99.90
10492;DHT22;5293;51.464;-2.566;2023-05-07T00:05:01;13.40;99.90
10492;DHT22;5293;51.464;-2.566;2023-05-07T00:07:28;13.40;99.90
10492;DHT22;5293;51.464;-2.566;2023-05-07T00:09:53;13.30;99.90
10492;DHT22;5293;51.464;-2.566;2023-05-07T00:12:20;13.30;99.90
10492;DHT22;5293;51.464;-2.566;2023-05-07T00:14:45;13.40;99.90
10492;DHT22;5293;51.464;-2.566;2023-05-07T00:17:11;13.40;99.90
10492;DHT22;5293;51.464;-2.566;2023-05-07T00:19:37;13.30;99.90
10492;DHT22;5293;51.464;-2.566;2023-05-07T00:22:02;13.30;99.90
10492;DHT22;5293;51.464;-2.566;2023-05-07T00:24:28;13.30;99.90
10492;DHT22;5293;51.464;-2.566;2023-05-07T00:26:54;13.30;99.90
10492;DHT22;5293;51.464;-2.566;2023-05-07T00:29:20;13.30;99.90
10492;DHT22;5293;51.464;-2.566;2023-05-07T00:31:45;13.30;99.90
10492;DHT22;5293;51.464;-2.566;2023-05-07T00:34:11;13.20;99.90
10492;DHT22;5293;51.464;-2.566;2023-05-07T00:36:36;13.20;99.90
10492;DHT22;5293;51.464;-2.566;2023-05-07T00:39:02;13.20;99.90
10492;DHT22;5293;51.464;-2.566;2023-05-07T00:41:29;13.20;99.90
10492;DHT22;5293;51.464;-2.566;2023-05-07T00:43:56;13.20;99.90
10492;DHT22;5293;51.464;-2.566;2023-05-07T00:46:22;13.20;99.90
10492;DHT22;5293;51.464;-2.566;2023-05-07T00:48:49;13.20;99.90
10492;DHT22;5293;51.464;-2.566;2023-05-07T00:51:16;13.20;99.90
10492;DHT22;5293;51.464;-2.566;2023-05-07T00:53:42;13.10;99.90
10492;DHT22;5293;51.464;-2.566;2023-05-07T00:56:08;13.10;99.90
10492;DHT22;5293;51.464;-2.566;2023-05-07T00:58:34;13.10;99.90
10492;DHT22;5293;51.464;-2.566;2023-05-07T01:01:00;13.10;99.90
10492;DHT22;5293;51.464;-2.566;2023-05-07T01:03:26;13.10;99.90
10492;DHT22;5293;51.464;-2.566;2023-05-07T01:05:52;13.10;99.90
10492;DHT22;5293;51.464;-2.566;2023-05-07T01:08:19;13.10;99.90
10492;DHT22;5293;51.464;-2.566;2023-05-07T01:10:46;13.10;99.90
10492;DHT22;5293;51.464;-2.566;2023-05-07T01:13:12;13.10;99.90
10492;DHT22;5293;51.464;-2.566;2023-05-07T01:15:39;13.10;99.90
10492;DHT22;5293;51.464;-2.566;2023-05-07T01:18:06;13.10;99.90
10492;DHT22;5293;51.464;-2.566;2023-05-07T01:20:32;13.10;99.90
10492;DHT22;5293;51.464;-2.566;2023-05-07T01:22:59;13.00;99.90
10492;DHT22;5293;51.464;-2.566;2023-05-07T01:25:26;13.10;99.90
10492;DHT22;5293;51.464;-2.566;2023-05-07T01:27:51;13.00;99.90
10492;DHT22;5293;51.464;-2.566;2023-05-07T01:30:18;13.20;99.90
10492;DHT22;5293;51.464;-2.566;2023-05-07T01:32:57;13.20;99.90
10492;DHT22;5293;51.464;-2.566;2023-05-07T01:35:28;13.30;99.90
10492;DHT22;5293;51.464;-2.566;2023-05-07T01:37:54;13.30;99.90
10492;DHT22;5293;51.464;-2.566;2023-05-07T01:40:20;13.40;99.90
10492;DHT22;5293;51.464;-2.566;2023-05-07T01:42:47;13.40;99.90
10492;DHT22;5293;51.464;-2.566;2023-05-07T01:45:14;13.40;99.90
10492;DHT22;5293;51.464;-2.566;2023-05-07T01:47:40;13.50;99.90
10492;DHT22;5293;51.464;-2.566;2023-05-07T01:50:07;13.50;99.90
10492;DHT22;5293;51.464;-2.566;2023-05-07T01:52:39;13.50;99.90
10492;DHT22;5293;51.464;-2.566;2023-05-07T01:55:06;13.60;99.90
10492;DHT22;5293;51.464;-2.566;2023-05-07T01:57:32;13.50;99.90
10492;DHT22;5293;51.464;-2.566;2023-05-07T01:59:58;13.50;99.90
10492;DHT22;5293;51.464;-2.566;2023-05-07T02:02:23;13.50;99.90
10492;DHT22;5293;51.464;-2.566;2023-05-07T02:04:49;13.50;99.90
10492;DHT22;5293;51.464;-2.566;2023-05-07T02:07:15;13.50;99.90
10492;DHT22;5293;51.464;-2.566;2023-05-07T02:09:40;13.50;99.90
10492;DHT22;5293;51.464;-2.566;2023-05-07T02:12:06;13.40;99.90
10492;DHT22;5293;51.464;-2.566;2023-05-07T02:14:32;13.50;99.90
10492;DHT22;5293;51.464;-2.566;2023-05-07T02:16:57;13.50;99.90
10492;DHT22;5293;51.464;-2.566;2023-05-07T02:19:23;13.50;99.90
10492;DHT22;5293;51.464;-2.566;2023-05-07T02:21:48;13.50;99.90
10492;DHT22;5293;51.464;-2.566;2023-05-07T02:24:14;13.70;99.90
10492;DHT22;5293;51.464;-2.566;2023-05-07T02:26:40;13.60;99.90
10492;DHT22;5293;51.464;-2.566;2023-05-07T02:29:06;13.60;99.90
10492;DHT22;5293;51.464;-2.566;2023-05-07T02:31:32;13.50;99.90
10492;DHT22;5293;51.464;-2.566;2023-05-07T02:33:59;13.30;99.90
10492;DHT22;5293;51.464;-2.566;2023-05-07T02:36:25;13.30;99.90
10492;DHT22;5293;51.464;-2.566;2023-05-07T02:38:52;13.30;99.90
10492;DHT22;5293;51.464;-2.566;2023-05-07T02:41:17;13.20;99.90
10492;DHT22;5293;51.464;-2.566;2023-05-07T02:43:43;13.10;99.90
10492;DHT22;5293;51.464;-2.566;2023-05-07T02:46:09;13.20;99.90
10492;DHT22;5293;51.464;-2.566;2023-05-07T02:48:35;13.20;99.90
10492;DHT22;5293;51.464;-2.566;2023-05-07T02:51:01;13.20;99.90
10492;DHT22;5293;51.464;-2.566;2023-05-07T02:53:27;13.20;99.90
10492;DHT22;5293;51.464;-2.566;2023-05-07T02:55:59;13.30;99.90
10492;DHT22;5293;51.464;-2.566;2023-05-07T02:58:25;13.30;99.90
10492;DHT22;5293;51.464;-2.566;2023-05-07T03:00:51;13.30;99.90
10492;DHT22;5293;51.464;-2.566;2023-05-07T03:03:16;13.30;99.90
10492;DHT22;5293;51.464;-2.566;2023-05-07T03:05:42;13.30;99.90
10492;DHT22;5293;51.464;-2.566;2023-05-07T03:08:09;13.30;99.90
10492;DHT22;5293;51.464;-2.566;2023-05-07T03:10:35;13.30;99.90
10492;DHT22;5293;51.464;-2.566;2023-05-07T03:13:01;13.30;99.90
10492;DHT22;5293;51.464;-2.566;2023-05-07T03:15:27;13.30;99.90
10492;DHT22;5293;51.464;-2.566;2023-05-07T03:17:52;13.20;99.90
10492;DHT22;5293;51.464;-2.566;2023-05-07T03:20:18;13.20;99.90
10492;DHT22;5293;51.464;-2.566;2023-05-07T03:22:44;13.20;99.90
10492;DHT22;5293;51.464;-2.566;2023-05-07T03:25:10;13.20;99.90
10492;DHT22;5293;51.464;-2.566;2023-05-07T03:27:36;13.20;99.90
10492;DHT22;5293;51.464;-2.566;2023-05-07T03:30:02;13.20;99.90
10492;DHT22;5293;51.464;-2.566;2023-05-07T03:32:27;13.20;99.90
10492;DHT22;5293;51.464;-2.566;2023-05-07T03:34:53;13.20;99.90
10492;DHT22;5293;51.464;-2.566;2023-05-07T03:37:19;13.20;99.90
10492;DHT22;5293;51.464;-2.566;2023-05-07T03:39:45;13.20;99.90
10492;DHT22;5293;51.464;-2.566;2023-05-07T03:42:10;13.30;99.90
10492;DHT22;5293;51.464;-2.566;2023-05-07T03:44:36;13.30;99.90
10492;DHT22;5293;51.464;-2.566;2023-05-07T03:47:02;13.30;99.90
10492;DHT22;5293;51.464;-2.566;2023-05-07T03:49:28;13.30;99.90
10492;DHT22;5293;51.464;-2.566;2023-05-07T03:51:54;13.30;99.90
10492;DHT22;5293;51.464;-2.566;2023-05-07T03:54:19;13.20;99.90
10492;DHT22;5293;51.464;-2.566;2023-05-07T03:56:45;13.30;99.90
10492;DHT22;5293;51.464;-2.566;2023-05-07T03:59:12;13.30;99.90
10492;DHT22;5293;51.464;-2.566;2023-05-07T04:01:38;13.20;99.90
10492;DHT22;5293;51.464;-2.566;2023-05-07T04:04:04;13.10;99.90
10492;DHT22;5293;51.464;-2.566;2023-05-07T04:06:30;13.10;99.90
10492;DHT22;5293;51.464;-2.566;2023-05-07T04:08:55;13.20;99.90
10492;DHT22;5293;51.464;-2.566;2023-05-07T04:11:21;13.20;99.90
10492;DHT22;5293;51.464;-2.566;2023-05-07T04:13:47;13.10;99.90
10492;DHT22;5293;51.464;-2.566;2023-05-07T04:16:12;13.20;99.90
10492;DHT22;5293;51.464;-2.566;2023-05-07T04:18:38;13.20;99.90
10492;DHT22;5293;51.464;-2.566;2023-05-07T04:21:04;13.10;99.90
10492;DHT22;5293;51.464;-2.566;2023-05-07T04:23:30;13.20;99.90
10492;DHT22;5293;51.464;-2.566;2023-05-07T04:25:56;13.20;99.90
10492;DHT22;5293;51.464;-2.566;2023-05-07T04:28:23;13.20;99.90
10492;DHT22;5293;51.464;-2.566;2023-05-07T04:30:48;13.20;99.90
10492;DHT22;5293;51.464;-2.566;2023-05-07T04:33:14;13.20;99.90
10492;DHT22;5293;51.464;-2.566;2023-05-07T04:35:42;13.10;99.90
10492;DHT22;5293;51.464;-2.566;2023-05-07T04:38:08;13.10;99.90
10492;DHT22;5293;51.464;-2.566;2023-05-07T04:40:35;13.10;99.90
10492;DHT22;5293;51.464;-2.566;2023-05-07T04:43:01;13.10;99.90
10492;DHT22;5293;51.464;-2.566;2023-05-07T04:45:27;13.20;99.90
10492;DHT22;5293;51.464;-2.566;2023-05-07T04:47:52;13.10;99.90
10492;DHT22;5293;51.464;-2.566;2023-05-07T04:50:18;13.10;99.90
10492;DHT22;5293;51.464;-2.566;2023-05-07T04:52:45;13.10;99.90
10492;DHT22;5293;51.464;-2.566;2023-05-07T04:55:11;13.10;99.90
10492;DHT22;5293;51.464;-2.566;2023-05-07T04:57:37;13.20;99.90
10492;DHT22;5293;51.464;-2.566;2023-05-07T05:00:05;13.10;99.90
10492;DHT22;5293;51.464;-2.566;2023-05-07T05:02:33;13.10;99.90
10492;DHT22;5293;51.464;-2.566;2023-05-07T05:05:00;13.20;99.90
10492;DHT22;5293;51.464;-2.566;2023-05-07T05:07:26;13.20;99.90
10492;DHT22;5293;51.464;-2.566;2023-05-07T05:09:52;13.20;99.90
10492;DHT22;5293;51.464;-2.566;2023-05-07T05:12:18;13.10;99.90
10492;DHT22;5293;51.464;-2.566;2023-05-07T05:14:43;13.00;99.90
10492;DHT22;5293;51.464;-2.566;2023-05-07T05:17:09;12.90;99.90
10492;DHT22;5293;51.464;-2.566;2023-05-07T05:19:34;12.90;99.90
10492;DHT22;5293;51.464;-2.566;2023-05-07T05:22:00;12.80;99.90
10492;DHT22;5293;51.464;-2.566;2023-05-07T05:24:30;12.80;99.90
10492;DHT22;5293;51.464;-2.566;2023-05-07T05:26:56;12.90;99.90
10492;DHT22;5293;51.464;-2.566;2023-05-07T05:29:22;12.90;99.90
10492;DHT22;5293;51.464;-2.566;2023-05-07T05:31:48;12.90;99.90
10492;DHT22;5293;51.464;-2.566;2023-05-07T05:34:13;12.90;99.90
10492;DHT22;5293;51.464;-2.566;2023-05-07T05:36:39;13.00;99.90
10492;DHT22;5293;51.464;-2.566;2023-05-07T05:39:04;13.00;99.90
10492;DHT22;5293;51.464;-2.566;2023-05-07T05:41:31;13.10;99.90
10492;DHT22;5293;51.464;-2.566;2023-05-07T05:43:57;13.00;99.90
10492;DHT22;5293;51.464;-2.566;2023-05-07T05:46:22;13.00;99.90
10492;DHT22;5293;51.464;-2.566;2023-05-07T05:48:48;13.10;99.90
10492;DHT22;5293;51.464;-2.566;2023-05-07T05:51:13;13.10;99.90
10492;DHT22;5293;51.464;-2.566;2023-05-07T05:53:39;13.20;99.90
10492;DHT22;5293;51.464;-2.566;2023-05-07T05:56:05;13.10;99.90
10492;DHT22;5293;51.464;-2.566;2023-05-07T05:58:31;13.20;99.90
10492;DHT22;5293;51.464;-2.566;2023-05-07T06:00:57;13.30;99.90
10492;DHT22;5293;51.464;-2.566;2023-05-07T06:03:23;13.40;99.90
10492;DHT22;5293;51.464;-2.566;2023-05-07T06:05:49;13.40;99.90
10492;DHT22;5293;51.464;-2.566;2023-05-07T06:08:14;13.50;99.90
10492;DHT22;5293;51.464;-2.566;2023-05-07T06:10:40;13.40;99.90
10492;DHT22;5293;51.464;-2.566;2023-05-07T06:13:07;13.50;99.90
10492;DHT22;5293;51.464;-2.566;2023-05-07T06:15:33;13.60;99.90
10492;DHT22;5293;51.464;-2.566;2023-05-07T06:17:59;13.60;99.90
10492;DHT22;5293;51.464;-2.566;2023-05-07T06:20:24;13.80;99.90
10492;DHT22;5293;51.464;-2.566;2023-05-07T06:22:50;13.80;99.90
10492;DHT22;5293;51.464;-2.566;2023-05-07T06:25:16;13.90;99.90
10492;DHT22;5293;51.464;-2.566;2023-05-07T06:27:41;13.90;99.90
10492;DHT22;5293;51.464;-2.566;2023-05-07T06:30:08;14.00;99.90
10492;DHT22;5293;51.464;-2.566;2023-05-07T06:32:34;14.20;99.90
10492;DHT22;5293;51.464;-2.566;2023-05-07T06:34:59;14.30;99.90
10492;DHT22;5293;51.464;-2.566;2023-05-07T06:37:25;14.30;99.90
10492;DHT22;5293;51.464;-2.566;2023-05-07T06:39:51;14.30;99.90
10492;DHT22;5293;51.464;-2.566;2023-05-07T06:42:16;14.30;99.90
10492;DHT22;5293;51.464;-2.566;2023-05-07T06:44:42;14.40;99.90
10492;DHT22;5293;51.464;-2.566;2023-05-07T06:47:08;14.50;99.90
10492;DHT22;5293;51.464;-2.566;2023-05-07T06:49:33;14.50;99.90
10492;DHT22;5293;51.464;-2.566;2023-05-07T06:51:59;14.60;99.90
10492;DHT22;5293;51.464;-2.566;2023-05-07T06:54:25;14.70;99.90
10492;DHT22;5293;51.464;-2.566;2023-05-07T06:56:50;14.70;99.90
10492;DHT22;5293;51.464;-2.566;2023-05-07T06:59:16;14.70;99.90
10492;DHT22;5293;51.464;-2.566;2023-05-07T07:01:42;14.80;99.90
10492;DHT22;5293;51.464;-2.566;2023-05-07T07:04:07;14.80;99.90
10492;DHT22;5293;51.464;-2.566;2023-05-07T07:06:33;14.90;99.90
10492;DHT22;5293;51.464;-2.566;2023-05-07T07:08:59;14.90;99.90
10492;DHT22;5293;51.464;-2.566;2023-05-07T07:11:25;14.90;99.90
10492;DHT22;5293;51.464;-2.566;2023-05-07T07:13:51;14.70;99.90
10492;DHT22;5293;51.464;-2.566;2023-05-07T07:16:16;14.70;99.90
10492;DHT22;5293;51.464;-2.566;2023-05-07T07:18:42;14.90;99.90
10492;DHT22;5293;51.464;-2.566;2023-05-07T07:21:08;14.80;99.90
10492;DHT22;5293;51.464;-2.566;2023-05-07T07:23:33;14.90;99.90
10492;DHT22;5293;51.464;-2.566;2023-05-07T07:25:59;15.10;99.90
10492;DHT22;5293;51.464;-2.566;2023-05-07T07:28:25;15.30;99.90
10492;DHT22;5293;51.464;-2.566;2023-05-07T07:30:51;15.30;99.90
10492;DHT22;5293;51.464;-2.566;2023-05-07T07:33:16;15.30;99.90
10492;DHT22;5293;51.464;-2.566;2023-05-07T07:35:42;15.30;99.90
10492;DHT22;5293;51.464;-2.566;2023-05-07T07:38:08;15.30;99.90
10492;DHT22;5293;51.464;-2.566;2023-05-07T07:40:36;15.40;99.90
10492;DHT22;5293;51.464;-2.566;2023-05-07T07:43:02;15.40;99.90
10492;DHT22;5293;51.464;-2.566;2023-05-07T07:45:28;15.30;99.90
10492;DHT22;5293;51.464;-2.566;2023-05-07T07:47:54;15.40;99.90
10492;DHT22;5293;51.464;-2.566;2023-05-07T07:50:20;15.50;99.90
10492;DHT22;5293;51.464;-2.566;2023-05-07T07:52:46;15.60;99.90
10492;DHT22;5293;51.464;-2.566;2023-05-07T07:55:11;15.70;99.90
10492;DHT22;5293;51.464;-2.566;2023-05-07T07:57:37;15.60;99.90
10492;DHT22;5293;51.464;-2.566;2023-05-07T08:00:03;15.60;99.90
10492;DHT22;5293;51.464;-2.566;2023-05-07T08:02:29;15.50;99.90
10492;DHT22;5293;51.464;-2.566;2023-05-07T08:04:55;15.50;99.90
10492;DHT22;5293;51.464;-2.566;2023-05-07T08:07:21;15.50;99.90
10492;DHT22;5293;51.464;-2.566;2023-05-07T08:09:48;15.50;99.90
10492;DHT22;5293;51.464;-2.566;2023-05-07T08:12:14;15.50;99.90
10492;DHT22;5293;51.464;-2.566;2023-05-07T08:14:40;15.50;99.90
10492;DHT22;5293;51.464;-2.566;2023-05-07T08:17:06;15.60;99.90
10492;DHT22;5293;51.464;-2.566;2023-05-07T08:19:32;15.50;99.90
10492;DHT22;5293;51.464;-2.566;2023-05-07T08:21:58;15.50;99.90
10492;DHT22;5293;51.464;-2.566;2023-05-07T08:24:24;15.60;99.90
10492;DHT22;5293;51.464;-2.566;2023-05-07T08:26:49;15.70;99.90
10492;DHT22;5293;51.464;-2.566;2023-05-07T08:29:15;15.70;99.90
10492;DHT22;5293;51.464;-2.566;2023-05-07T08:31:41;15.70;99.90
10492;DHT22;5293;51.464;-2.566;2023-05-07T08:34:06;15.60;99.90
10492;DHT22;5293;51.464;-2.566;2023-05-07T08:36:33;15.60;99.90
10492;DHT22;5293;51.464;-2.566;2023-05-07T08:38:59;15.70;99.90
10492;DHT22;5293;51.464;-2.566;2023-05-07T08:41:25;15.80;99.90
10492;DHT22;5293;51.464;-2.566;2023-05-07T08:43:51;15.80;99.90
10492;DHT22;5293;51.464;-2.566;2023-05-07T08:46:20;15.90;99.90
10492;DHT22;5293;51.464;-2.566;2023-05-07T08:48:49;16.00;99.90
10492;DHT22;5293;51.464;-2.566;2023-05-07T08:51:20;16.10;99.90
10492;DHT22;5293;51.464;-2.566;2023-05-07T08:53:47;16.00;99.90
10492;DHT22;5293;51.464;-2.566;2023-05-07T08:56:14;15.90;99.90
10492;DHT22;5293;51.464;-2.566;2023-05-07T08:58:45;16.00;99.90
10492;DHT22;5293;51.464;-2.566;2023-05-07T09:01:16;16.00;99.90
10492;DHT22;5293;51.464;-2.566;2023-05-07T09:03:44;16.10;99.90
10492;DHT22;5293;51.464;-2.566;2023-05-07T09:06:11;16.20;99.90
10492;DHT22;5293;51.464;-2.566;2023-05-07T09:08:37;16.30;99.90
10492;DHT22;5293;51.464;-2.566;2023-05-07T09:11:03;16.40;99.90
10492;DHT22;5293;51.464;-2.566;2023-05-07T09:13:29;16.60;99.90
10492;DHT22;5293;51.464;-2.566;2023-05-07T09:15:55;16.80;99.90
10492;DHT22;5293;51.464;-2.566;2023-05-07T09:18:21;16.90;99.90
10492;DHT22;5293;51.464;-2.566;2023-05-07T09:20:48;17.00;99.90
10492;DHT22;5293;51.464;-2.566;2023-05-07T09:23:14;16.90;99.90
10492;DHT22;5293;51.464;-2.566;2023-05-07T09:25:40;16.80;99.90
10492;DHT22;5293;51.464;-2.566;2023-05-07T09:28:06;16.80;99.90
10492;DHT22;5293;51.464;-2.566;2023-05-07T09:30:33;16.70;99.90
10492;DHT22;5293;51.464;-2.566;2023-05-07T09:33:00;16.90;99.90
10492;DHT22;5293;51.464;-2.566;2023-05-07T09:35:27;17.20;99.90
10492;DHT22;5293;51.464;-2.566;2023-05-07T09:37:55;17.20;99.90
10492;DHT22;5293;51.464;-2.566;2023-05-07T09:40:22;17.40;99.90
10492;DHT22;5293;51.464;-2.566;2023-05-07T09:42:48;17.50;99.90
10492;DHT22;5293;51.464;-2.566;2023-05-07T09:45:27;17.60;99.90
10492;DHT22;5293;51.464;-2.566;2023-05-07T09:47:55;17.70;99.90
10492;DHT22;5293;51.464;-2.566;2023-05-07T09:50:27;17.60;99.90
10492;DHT22;5293;51.464;-2.566;2023-05-07T09:52:57;17.40;99.90
10492;DHT22;5293;51.464;-2.566;2023-05-07T09:55:23;17.40;99.90
10492;DHT22;5293;51.464;-2.566;2023-05-07T09:57:53;17.40;99.90
10492;DHT22;5293;51.464;-2.566;2023-05-07T10:00:20;17.60;99.90
10492;DHT22;5293;51.464;-2.566;2023-05-07T10:02:48;17.60;99.90
10492;DHT22;5293;51.464;-2.566;2023-05-07T10:05:15;17.80;99.90
10492;DHT22;5293;51.464;-2.566;2023-05-07T10:07:42;17.90;99.90
10492;DHT22;5293;51.464;-2.566;2023-05-07T10:10:09;18.10;99.90
10492;DHT22;5293;51.464;-2.566;2023-05-07T10:12:35;18.40;99.90
10492;DHT22;5293;51.464;-2.566;2023-05-07T10:15:08;18.70;99.90
10492;DHT22;5293;51.464;-2.566;2023-05-07T10:17:38;18.70;99.90
10492;DHT22;5293;51.464;-2.566;2023-05-07T10:20:06;18.80;99.90
10492;DHT22;5293;51.464;-2.566;2023-05-07T10:22:44;18.50;99.90
10492;DHT22;5293;51.464;-2.566;2023-05-07T10:25:21;17.80;99.90
10492;DHT22;5293;51.464;-2.566;2023-05-07T10:27:49;17.80;99.90
10492;DHT22;5293;51.464;-2.566;2023-05-07T10:32:56;17.40;99.90
10492;DHT22;5293;51.464;-2.566;2023-05-07T10:35:32;17.20;99.90
10492;DHT22;5293;51.464;-2.566;2023-05-07T10:38:02;17.10;99.90
10492;DHT22;5293;51.464;-2.566;2023-05-07T10:40:28;17.00;99.90
10492;DHT22;5293;51.464;-2.566;2023-05-07T10:42:58;17.00;99.90
10492;DHT22;5293;51.464;-2.566;2023-05-07T10:45:28;17.00;99.90
10492;DHT22;5293;51.464;-2.566;2023-05-07T10:48:11;17.10;99.90
10492;DHT22;5293;51.464;-2.566;2023-05-07T10:50:38;17.20;99.90
10492;DHT22;5293;51.464;-2.566;2023-05-07T10:55:49;17.00;99.90
10492;DHT22;5293;51.464;-2.566;2023-05-07T11:00:50;17.30;99.90
10492;DHT22;5293;51.464;-2.566;2023-05-07T11:03:17;17.40;99.90
10492;DHT22;5293;51.464;-2.566;2023-05-07T11:05:42;17.30;99.90
10492;DHT22;5293;51.464;-2.566;2023-05-07T11:08:09;17.20;99.90
10492;DHT22;5293;51.464;-2.566;2023-05-07T11:13:16;16.90;99.90
10492;DHT22;5293;51.464;-2.566;2023-05-07T11:15:46;17.20;99.90
10492;DHT22;5293;51.464;-2.566;2023-05-07T11:18:15;17.30;99.90
10492;DHT22;5293;51.464;-2.566;2023-05-07T11:20:49;17.30;99.90
10492;DHT22;5293;51.464;-2.566;2023-05-07T11:26:10;17.40;99.90
10492;DHT22;5293;51.464;-2.566;2023-05-07T11:28:41;17.50;99.90
10492;DHT22;5293;51.464;-2.566;2023-05-07T11:31:08;17.80;99.90
10492;DHT22;5293;51.464;-2.566;2023-05-07T11:33:35;18.10;99.90
10492;DHT22;5293;51.464;-2.566;2023-05-07T11:36:02;18.30;99.90
10492;DHT22;5293;51.464;-2.566;2023-05-07T11:38:29;18.50;99.90
10492;DHT22;5293;51.464;-2.566;2023-05-07T11:40:57;18.70;99.90
10492;DHT22;5293;51.464;-2.566;2023-05-07T11:43:24;18.80;99.90
10492;DHT22;5293;51.464;-2.566;2023-05-07T11:45:50;19.00;99.90
10492;DHT22;5293;51.464;-2.566;2023-05-07T11:48:16;19.10;99.90
10492;DHT22;5293;51.464;-2.566;2023-05-07T11:50:52;19.00;99.90
10492;DHT22;5293;51.464;-2.566;2023-05-07T11:53:24;19.10;99.90
10492;DHT22;5293;51.464;-2.566;2023-05-07T11:55:55;18.90;99.90
10492;DHT22;5293;51.464;-2.566;2023-05-07T11:58:23;18.60;99.90
10492;DHT22;5293;51.464;-2.566;2023-05-07T12:00:52;18.40;99.90
10492;DHT22;5293;51.464;-2.566;2023-05-07T12:03:19;18.20;99.90
10492;DHT22;5293;51.464;-2.566;2023-05-07T12:05:45;18.10;99.90
10492;DHT22;5293;51.464;-2.566;2023-05-07T12:08:18;18.10;99.90
10492;DHT22;5293;51.464;-2.566;2023-05-07T12:10:45;18.20;99.90
10492;DHT22;5293;51.464;-2.566;2023-05-07T12:13:21;18.20;99.90
10492;DHT22;5293;51.464;-2.566;2023-05-07T12:15:51;18.10;99.90
10492;DHT22;5293;51.464;-2.566;2023-05-07T12:18:17;18.20;99.90
10492;DHT22;5293;51.464;-2.566;2023-05-07T12:20:43;18.30;99.90
10492;DHT22;5293;51.464;-2.566;2023-05-07T12:23:08;18.40;99.90
10492;DHT22;5293;51.464;-2.566;2023-05-07T12:25:41;18.20;99.90
10492;DHT22;5293;51.464;-2.566;2023-05-07T12:28:15;18.00;99.90
10492;DHT22;5293;51.464;-2.566;2023-05-07T12:30:46;18.10;99.90
10492;DHT22;5293;51.464;-2.566;2023-05-07T12:33:17;18.20;99.90
10492;DHT22;5293;51.464;-2.566;2023-05-07T12:35:43;18.20;99.90
10492;DHT22;5293;51.464;-2.566;2023-05-07T12:38:14;18.10;99.90
10492;DHT22;5293;51.464;-2.566;2023-05-07T12:40:42;18.10;99.90
10492;DHT22;5293;51.464;-2.566;2023-05-07T12:43:18;18.00;99.90
10492;DHT22;5293;51.464;-2.566;2023-05-07T12:45:46;18.10;99.90
10492;DHT22;5293;51.464;-2.566;2023-05-07T12:48:12;17.90;99.90
10492;DHT22;5293;51.464;-2.566;2023-05-07T12:50:38;17.90;99.90
10492;DHT22;5293;51.464;-2.566;2023-05-07T12:53:05;18.00;99.90
10492;DHT22;5293;51.464;-2.566;2023-05-07T12:55:31;18.00;99.90
10492;DHT22;5293;51.464;-2.566;2023-05-07T12:58:00;18.00;99.90
10492;DHT22;5293;51.464;-2.566;2023-05-07T13:00:37;17.90;99.90
10492;DHT22;5293;51.464;-2.566;2023-05-07T13:03:03;17.80;99.90
10492;DHT22;5293;51.464;-2.566;2023-05-07T13:05:28;17.90;99.90
10492;DHT22;5293;51.464;-2.566;2023-05-07T13:07:55;17.90;99.90
10492;DHT22;5293;51.464;-2.566;2023-05-07T13:10:22;17.80;99.90
10492;DHT22;5293;51.464;-2.566;2023-05-07T13:12:49;17.80;99.90
10492;DHT22;5293;51.464;-2.566;2023-05-07T13:15:15;17.90;99.90
10492;DHT22;5293;51.464;-2.566;2023-05-07T13:17:41;17.80;99.90
10492;DHT22;5293;51.464;-2.566;2023-05-07T13:20:09;17.80;99.90
10492;DHT22;5293;51.464;-2.566;2023-05-07T13:22:35;17.80;99.90
10492;DHT22;5293;51.464;-2.566;2023-05-07T13:25:01;17.80;99.90
10492;DHT22;5293;51.464;-2.566;2023-05-07T13:27:27;17.80;99.90
10492;DHT22;5293;51.464;-2.566;2023-05-07T13:29:52;17.90;99.90
10492;DHT22;5293;51.464;-2.566;2023-05-07T13:32:18;17.90;99.90
10492;DHT22;5293;51.464;-2.566;2023-05-07T13:34:44;18.00;99.90
10492;DHT22;5293;51.464;-2.566;2023-05-07T13:37:09;18.00;99.90
10492;DHT22;5293;51.464;-2.566;2023-05-07T13:39:36;18.10;99.90
10492;DHT22;5293;51.464;-2.566;2023-05-07T13:42:02;18.20;99.90
10492;DHT22;5293;51.464;-2.566;2023-05-07T13:44:27;18.40;99.90
10492;DHT22;5293;51.464;-2.566;2023-05-07T13:46:53;18.50;99.90
10492;DHT22;5293;51.464;-2.566;2023-05-07T13:49:19;18.60;99.90
10492;DHT22;5293;51.464;-2.566;2023-05-07T13:51:44;18.70;99.90
10492;DHT22;5293;51.464;-2.566;2023-05-07T13:54:10;18.80;99.90
10492;DHT22;5293;51.464;-2.566;2023-05-07T13:56:37;18.80;99.90
10492;DHT22;5293;51.464;-2.566;2023-05-07T13:59:02;18.70;99.90
10492;DHT22;5293;51.464;-2.566;2023-05-07T14:01:28;18.70;99.90
10492;DHT22;5293;51.464;-2.566;2023-05-07T14:03:55;18.70;99.90
10492;DHT22;5293;51.464;-2.566;2023-05-07T14:06:20;18.70;99.90
10492;DHT22;5293;51.464;-2.566;2023-05-07T14:08:47;18.80;99.90
10492;DHT22;5293;51.464;-2.566;2023-05-07T14:11:12;18.90;99.90
10492;DHT22;5293;51.464;-2.566;2023-05-07T14:13:38;19.10;99.90
10492;DHT22;5293;51.464;-2.566;2023-05-07T14:16:04;19.10;99.90
10492;DHT22;5293;51.464;-2.566;2023-05-07T14:18:30;19.20;99.90
10492;DHT22;5293;51.464;-2.566;2023-05-07T14:20:56;19.30;99.90
10492;DHT22;5293;51.464;-2.566;2023-05-07T14:23:21;19.30;99.90
10492;DHT22;5293;51.464;-2.566;2023-05-07T14:25:52;19.40;99.90
10492;DHT22;5293;51.464;-2.566;2023-05-07T14:28:18;19.40;99.90
10492;DHT22;5293;51.464;-2.566;2023-05-07T14:30:44;19.20;99.90
10492;DHT22;5293;51.464;-2.566;2023-05-07T14:33:10;19.20;99.90
10492;DHT22;5293;51.464;-2.566;2023-05-07T14:35:35;19.10;99.90
10492;DHT22;5293;51.464;-2.566;2023-05-07T14:38:01;19.10;99.90
10492;DHT22;5293;51.464;-2.566;2023-05-07T14:40:27;19.30;99.90
10492;DHT22;5293;51.464;-2.566;2023-05-07T14:42:52;19.40;99.90
10492;DHT22;5293;51.464;-2.566;2023-05-07T14:45:18;19.40;99.90
10492;DHT22;5293;51.464;-2.566;2023-05-07T14:47:44;19.40;99.90
10492;DHT22;5293;51.464;-2.566;2023-05-07T14:50:09;19.60;99.90
10492;DHT22;5293;51.464;-2.566;2023-05-07T14:52:35;19.40;99.90
10492;DHT22;5293;51.464;-2.566;2023-05-07T14:55:01;19.40;99.90
10492;DHT22;5293;51.464;-2.566;2023-05-07T14:57:26;19.40;99.90
10492;DHT22;5293;51.464;-2.566;2023-05-07T14:59:52;19.50;99.90
10492;DHT22;5293;51.464;-2.566;2023-05-07T15:02:18;19.50;99.90
10492;DHT22;5293;51.464;-2.566;2023-05-07T15:04:43;19.40;99.90
10492;DHT22;5293;51.464;-2.566;2023-05-07T15:07:13;19.30;99.90
10492;DHT22;5293;51.464;-2.566;2023-05-07T15:09:43;19.20;99.90
10492;DHT22;5293;51.464;-2.566;2023-05-07T15:12:08;19.30;99.90
10492;DHT22;5293;51.464;-2.566;2023-05-07T15:14:34;19.30;99.90
10492;DHT22;5293;51.464;-2.566;2023-05-07T15:17:00;19.30;99.90
10492;DHT22;5293;51.464;-2.566;2023-05-07T15:19:26;19.30;99.90
10492;DHT22;5293;51.464;-2.566;2023-05-07T15:21:58;19.30;99.90
10492;DHT22;5293;51.464;-2.566;2023-05-07T15:24:25;19.20;99.90
10492;DHT22;5293;51.464;-2.566;2023-05-07T15:26:53;19.20;99.90
10492;DHT22;5293;51.464;-2.566;2023-05-07T15:29:19;19.00;99.90
10492;DHT22;5293;51.464;-2.566;2023-05-07T15:31:45;18.90;99.90
10492;DHT22;5293;51.464;-2.566;2023-05-07T15:34:11;18.90;99.90
10492;DHT22;5293;51.464;-2.566;2023-05-07T15:36:37;19.00;99.90
10492;DHT22;5293;51.464;-2.566;2023-05-07T15:39:03;19.00;99.90